sensor_id;sensor_type;location;lat;lon;timestamp;P1;durP1;ratioP1;P2;durP2;ratioP2
55268;SDS011;41131;42.990;21.954;2024-01-10T00:02:05;34.50;;;22.23;;
55268;SDS011;41131;42.990;21.954;2024-01-10T00:04:31;39.15;;;23.92;;
55268;SDS011;41131;42.990;21.954;2024-01-10T00:06:57;35.78;;;21.75;;
55268;SDS011;41131;42.990;21.954;2024-01-10T00:09:23;36.30;;;21.00;;
55268;SDS011;41131;42.990;21.954;2024-01-10T00:11:49;32.67;;;18.88;;
55268;SDS011;41131;42.990;21.954;2024-01-10T00:14:15;50.70;;;29.05;;
55268;SDS011;41131;42.990;21.954;2024-01-10T00:16:41;43.08;;;25.85;;
55268;SDS011;41131;42.990;21.954;2024-01-10T00:19:07;27.05;;;16.38;;
55268;SDS011;41131;42.990;21.954;2024-01-10T00:21:33;21.63;;;12.70;;
55268;SDS011;41131;42.990;21.954;2024-01-10T00:24:01;27.95;;;16.08;;
55268;SDS011;41131;42.990;21.954;2024-01-10T00:26:27;38.47;;;19.45;;
55268;SDS011;41131;42.990;21.954;2024-01-10T00:28:53;45.03;;;23.30;;
55268;SDS011;41131;42.990;21.954;2024-01-10T00:31:19;44.63;;;21.05;;
55268;SDS011;41131;42.990;21.954;2024-01-10T00:33:45;44.65;;;22.73;;
55268;SDS011;41131;42.990;21.954;2024-01-10T00:36:11;31.75;;;15.13;;
55268;SDS011;41131;42.990;21.954;2024-01-10T00:38:37;31.17;;;17.73;;
55268;SDS011;41131;42.990;21.954;2024-01-10T00:41:03;24.52;;;13.10;;
55268;SDS011;41131;42.990;21.954;2024-01-10T00:43:29;30.52;;;16.95;;
55268;SDS011;41131;42.990;21.954;2024-01-10T00:45:55;32.33;;;18.85;;
55268;SDS011;41131;42.990;21.954;2024-01-10T00:48:22;23.85;;;13.18;;
55268;SDS011;41131;42.990;21.954;2024-01-10T00:50:47;76.00;;;38.70;;
55268;SDS011;41131;42.990;21.954;2024-01-10T00:53:13;41.25;;;23.17;;
55268;SDS011;41131;42.990;21.954;2024-01-10T00:55:39;39.13;;;21.20;;
55268;SDS011;41131;42.990;21.954;2024-01-10T00:58:04;27.58;;;16.23;;
55268;SDS011;41131;42.990;21.954;2024-01-10T01:00:31;52.45;;;24.10;;
55268;SDS011;41131;42.990;21.954;2024-01-10T01:02:57;46.78;;;23.33;;
55268;SDS011;41131;42.990;21.954;2024-01-10T01:05:23;19.05;;;11.68;;
55268;SDS011;41131;42.990;21.954;2024-01-10T01:07:48;21.45;;;12.85;;
55268;SDS011;41131;42.990;21.954;2024-01-10T01:10:14;27.25;;;16.33;;
55268;SDS011;41131;42.990;21.954;2024-01-10T01:12:40;27.25;;;15.32;;
55268;SDS011;41131;42.990;21.954;2024-01-10T01:15:06;41.88;;;23.33;;
55268;SDS011;41131;42.990;21.954;2024-01-10T01:17:32;82.88;;;42.33;;
55268;SDS011;41131;42.990;21.954;2024-01-10T01:19:59;33.50;;;18.92;;
55268;SDS011;41131;42.990;21.954;2024-01-10T01:22:25;37.70;;;20.92;;
55268;SDS011;41131;42.990;21.954;2024-01-10T01:24:51;34.10;;;18.95;;
55268;SDS011;41131;42.990;21.954;2024-01-10T01:27:17;35.10;;;17.65;;
55268;SDS011;41131;42.990;21.954;2024-01-10T01:29:43;49.03;;;25.25;;
55268;SDS011;41131;42.990;21.954;2024-01-10T01:32:09;23.90;;;13.75;;
55268;SDS011;41131;42.990;21.954;2024-01-10T01:34:34;25.75;;;14.77;;
55268;SDS011;41131;42.990;21.954;2024-01-10T01:37:00;36.70;;;18.33;;
55268;SDS011;41131;42.990;21.954;2024-01-10T01:39:26;20.80;;;11.77;;
55268;SDS011;41131;42.990;21.954;2024-01-10T01:41:52;23.77;;;15.02;;
55268;SDS011;41131;42.990;21.954;2024-01-10T01:44:18;21.65;;;13.27;;
55268;SDS011;41131;42.990;21.954;2024-01-10T01:46:44;47.83;;;26.02;;
55268;SDS011;41131;42.990;21.954;2024-01-10T01:49:11;61.00;;;31.13;;
55268;SDS011;41131;42.990;21.954;2024-01-10T01:51:37;25.15;;;14.85;;
55268;SDS011;41131;42.990;21.954;2024-01-10T01:54:06;25.08;;;15.75;;
55268;SDS011;41131;42.990;21.954;2024-01-10T01:56:36;26.48;;;15.65;;
55268;SDS011;41131;42.990;21.954;2024-01-10T01:59:06;24.80;;;13.48;;
55268;SDS011;41131;42.990;21.954;2024-01-10T02:01:33;35.85;;;19.65;;
55268;SDS011;41131;42.990;21.954;2024-01-10T02:04:02;31.25;;;18.58;;
55268;SDS011;41131;42.990;21.954;2024-01-10T02:06:31;23.80;;;13.55;;
55268;SDS011;41131;42.990;21.954;2024-01-10T02:08:57;22.58;;;14.98;;
55268;SDS011;41131;42.990;21.954;2024-01-10T02:11:23;25.27;;;15.98;;
55268;SDS011;41131;42.990;21.954;2024-01-10T02:13:50;27.98;;;18.15;;
55268;SDS011;41131;42.990;21.954;2024-01-10T02:16:19;26.02;;;16.38;;
55268;SDS011;41131;42.990;21.954;2024-01-10T02:18:46;22.45;;;14.60;;
55268;SDS011;41131;42.990;21.954;2024-01-10T02:21:11;18.20;;;11.38;;
55268;SDS011;41131;42.990;21.954;2024-01-10T02:23:37;20.30;;;12.38;;
55268;SDS011;41131;42.990;21.954;2024-01-10T02:26:03;25.70;;;14.23;;
55268;SDS011;41131;42.990;21.954;2024-01-10T02:28:29;26.10;;;14.98;;
55268;SDS011;41131;42.990;21.954;2024-01-10T02:30:55;19.00;;;13.07;;
55268;SDS011;41131;42.990;21.954;2024-01-10T02:33:22;21.80;;;12.25;;
55268;SDS011;41131;42.990;21.954;2024-01-10T02:35:48;21.88;;;12.57;;
55268;SDS011;41131;42.990;21.954;2024-01-10T02:38:13;28.65;;;15.25;;
55268;SDS011;41131;42.990;21.954;2024-01-10T02:40:39;43.95;;;28.15;;
55268;SDS011;41131;42.990;21.954;2024-01-10T02:43:05;63.30;;;32.53;;
55268;SDS011;41131;42.990;21.954;2024-01-10T02:45:32;76.78;;;42.78;;
55268;SDS011;41131;42.990;21.954;2024-01-10T02:47:58;30.42;;;19.52;;
55268;SDS011;41131;42.990;21.954;2024-01-10T02:50:24;51.55;;;26.92;;
55268;SDS011;41131;42.990;21.954;2024-01-10T02:52:50;24.75;;;15.85;;
55268;SDS011;41131;42.990;21.954;2024-01-10T02:55:16;30.38;;;18.23;;
55268;SDS011;41131;42.990;21.954;2024-01-10T02:57:42;27.27;;;17.02;;
55268;SDS011;41131;42.990;21.954;2024-01-10T03:00:09;25.95;;;15.85;;
55268;SDS011;41131;42.990;21.954;2024-01-10T03:02:36;23.27;;;14.80;;
55268;SDS011;41131;42.990;21.954;2024-01-10T03:05:02;37.13;;;20.98;;
55268;SDS011;41131;42.990;21.954;2024-01-10T03:07:28;30.20;;;19.52;;
55268;SDS011;41131;42.990;21.954;2024-01-10T03:09:54;22.00;;;13.30;;
55268;SDS011;41131;42.990;21.954;2024-01-10T03:12:20;18.88;;;13.00;;
55268;SDS011;41131;42.990;21.954;2024-01-10T03:14:45;21.30;;;12.18;;
55268;SDS011;41131;42.990;21.954;2024-01-10T03:17:11;16.08;;;9.60;;
55268;SDS011;41131;42.990;21.954;2024-01-10T03:19:37;12.93;;;8.75;;
55268;SDS011;41131;42.990;21.954;2024-01-10T03:22:07;13.77;;;9.20;;
55268;SDS011;41131;42.990;21.954;2024-01-10T03:24:33;15.00;;;10.15;;
55268;SDS011;41131;42.990;21.954;2024-01-10T03:26:59;28.17;;;14.98;;
55268;SDS011;41131;42.990;21.954;2024-01-10T03:29:24;21.85;;;14.05;;
55268;SDS011;41131;42.990;21.954;2024-01-10T03:31:50;30.35;;;18.77;;
55268;SDS011;41131;42.990;21.954;2024-01-10T03:34:16;30.63;;;19.20;;
55268;SDS011;41131;42.990;21.954;2024-01-10T03:36:43;25.52;;;15.40;;
55268;SDS011;41131;42.990;21.954;2024-01-10T03:39:09;29.30;;;17.05;;
55268;SDS011;41131;42.990;21.954;2024-01-10T03:41:35;20.52;;;12.88;;
55268;SDS011;41131;42.990;21.954;2024-01-10T03:44:01;18.65;;;12.43;;
55268;SDS011;41131;42.990;21.954;2024-01-10T03:46:27;21.02;;;11.88;;
55268;SDS011;41131;42.990;21.954;2024-01-10T03:48:52;34.05;;;18.25;;
55268;SDS011;41131;42.990;21.954;2024-01-10T03:51:19;21.05;;;14.00;;
55268;SDS011;41131;42.990;21.954;2024-01-10T03:53:45;17.75;;;12.02;;
55268;SDS011;41131;42.990;21.954;2024-01-10T03:56:11;16.35;;;11.02;;
55268;SDS011;41131;42.990;21.954;2024-01-10T03:58:37;14.68;;;10.02;;
55268;SDS011;41131;42.990;21.954;2024-01-10T04:01:06;25.83;;;11.93;;
55268;SDS011;41131;42.990;21.954;2024-01-10T04:03:33;24.55;;;14.90;;
55268;SDS011;41131;42.990;21.954;2024-01-10T04:06:00;18.58;;;13.43;;
55268;SDS011;41131;42.990;21.954;2024-01-10T04:08:26;16.50;;;11.35;;
55268;SDS011;41131;42.990;21.954;2024-01-10T04:10:52;21.00;;;14.43;;
55268;SDS011;41131;42.990;21.954;2024-01-10T04:13:18;22.05;;;14.15;;
55268;SDS011;41131;42.990;21.954;2024-01-10T04:15:44;22.75;;;14.65;;
55268;SDS011;41131;42.990;21.954;2024-01-10T04:18:09;21.23;;;14.45;;
55268;SDS011;41131;42.990;21.954;2024-01-10T04:20:35;23.33;;;14.75;;
55268;SDS011;41131;42.990;21.954;2024-01-10T04:23:01;24.17;;;16.70;;
55268;SDS011;41131;42.990;21.954;2024-01-10T04:25:27;19.67;;;12.65;;
55268;SDS011;41131;42.990;21.954;2024-01-10T04:27:53;26.02;;;17.90;;
55268;SDS011;41131;42.990;21.954;2024-01-10T04:30:20;24.90;;;15.82;;
55268;SDS011;41131;42.990;21.954;2024-01-10T04:32:46;22.85;;;15.80;;
55268;SDS011;41131;42.990;21.954;2024-01-10T04:35:12;26.52;;;14.48;;
55268;SDS011;41131;42.990;21.954;2024-01-10T04:37:37;50.00;;;29.42;;
55268;SDS011;41131;42.990;21.954;2024-01-10T04:40:03;20.38;;;12.50;;
55268;SDS011;41131;42.990;21.954;2024-01-10T04:42:30;22.70;;;15.07;;
55268;SDS011;41131;42.990;21.954;2024-01-10T04:44:56;19.00;;;10.00;;
55268;SDS011;41131;42.990;21.954;2024-01-10T04:47:22;17.83;;;10.25;;
55268;SDS011;41131;42.990;21.954;2024-01-10T04:49:48;52.40;;;27.88;;
55268;SDS011;41131;42.990;21.954;2024-01-10T04:52:13;40.60;;;20.60;;
55268;SDS011;41131;42.990;21.954;2024-01-10T04:54:39;39.47;;;22.08;;
55268;SDS011;41131;42.990;21.954;2024-01-10T04:57:05;38.00;;;21.38;;
55268;SDS011;41131;42.990;21.954;2024-01-10T04:59:31;36.22;;;18.77;;
55268;SDS011;41131;42.990;21.954;2024-01-10T05:01:57;42.45;;;23.02;;
55268;SDS011;41131;42.990;21.954;2024-01-10T05:04:22;33.63;;;17.88;;
55268;SDS011;41131;42.990;21.954;2024-01-10T05:06:48;52.92;;;28.75;;
55268;SDS011;41131;42.990;21.954;2024-01-10T05:09:14;52.75;;;28.98;;
55268;SDS011;41131;42.990;21.954;2024-01-10T05:11:40;27.27;;;16.58;;
55268;SDS011;41131;42.990;21.954;2024-01-10T05:14:06;26.45;;;14.23;;
55268;SDS011;41131;42.990;21.954;2024-01-10T05:16:31;25.85;;;15.15;;
55268;SDS011;41131;42.990;21.954;2024-01-10T05:19:00;20.90;;;12.82;;
55268;SDS011;41131;42.990;21.954;2024-01-10T05:21:28;30.13;;;16.70;;
55268;SDS011;41131;42.990;21.954;2024-01-10T05:23:55;35.20;;;17.73;;
55268;SDS011;41131;42.990;21.954;2024-01-10T05:26:21;37.22;;;18.08;;
55268;SDS011;41131;42.990;21.954;2024-01-10T05:28:46;20.80;;;10.15;;
55268;SDS011;41131;42.990;21.954;2024-01-10T05:31:12;22.77;;;10.52;;
55268;SDS011;41131;42.990;21.954;2024-01-10T05:33:38;41.78;;;19.52;;
55268;SDS011;41131;42.990;21.954;2024-01-10T05:36:04;43.13;;;26.27;;
55268;SDS011;41131;42.990;21.954;2024-01-10T05:38:29;45.50;;;27.98;;
55268;SDS011;41131;42.990;21.954;2024-01-10T05:40:55;50.35;;;28.85;;
55268;SDS011;41131;42.990;21.954;2024-01-10T05:43:21;41.22;;;25.83;;
55268;SDS011;41131;42.990;21.954;2024-01-10T05:45:47;30.95;;;19.83;;
55268;SDS011;41131;42.990;21.954;2024-01-10T05:48:12;35.45;;;22.83;;
55268;SDS011;41131;42.990;21.954;2024-01-10T05:50:38;40.92;;;24.23;;
55268;SDS011;41131;42.990;21.954;2024-01-10T05:53:04;55.03;;;37.35;;
55268;SDS011;41131;42.990;21.954;2024-01-10T05:55:30;45.17;;;30.00;;
55268;SDS011;41131;42.990;21.954;2024-01-10T05:57:55;40.88;;;26.90;;
55268;SDS011;41131;42.990;21.954;2024-01-10T06:00:21;37.00;;;24.42;;
55268;SDS011;41131;42.990;21.954;2024-01-10T06:02:47;48.90;;;28.85;;
55268;SDS011;41131;42.990;21.954;2024-01-10T06:05:13;49.22;;;29.58;;
55268;SDS011;41131;42.990;21.954;2024-01-10T06:07:39;56.47;;;31.95;;
55268;SDS011;41131;42.990;21.954;2024-01-10T06:10:07;68.50;;;40.00;;
55268;SDS011;41131;42.990;21.954;2024-01-10T06:12:34;66.88;;;37.88;;
55268;SDS011;41131;42.990;21.954;2024-01-10T06:15:00;86.03;;;48.53;;
55268;SDS011;41131;42.990;21.954;2024-01-10T06:17:26;118.93;;;62.00;;
55268;SDS011;41131;42.990;21.954;2024-01-10T06:19:52;109.88;;;58.88;;
55268;SDS011;41131;42.990;21.954;2024-01-10T06:22:18;113.05;;;60.28;;
55268;SDS011;41131;42.990;21.954;2024-01-10T06:24:49;91.20;;;54.20;;
55268;SDS011;41131;42.990;21.954;2024-01-10T06:27:15;84.95;;;51.30;;
55268;SDS011;41131;42.990;21.954;2024-01-10T06:29:43;85.57;;;46.58;;
55268;SDS011;41131;42.990;21.954;2024-01-10T06:32:10;82.68;;;45.85;;
55268;SDS011;41131;42.990;21.954;2024-01-10T06:34:36;75.85;;;44.85;;
55268;SDS011;41131;42.990;21.954;2024-01-10T06:37:02;86.30;;;49.28;;
55268;SDS011;41131;42.990;21.954;2024-01-10T06:39:28;93.97;;;51.47;;
55268;SDS011;41131;42.990;21.954;2024-01-10T06:41:54;77.60;;;44.35;;
55268;SDS011;41131;42.990;21.954;2024-01-10T06:44:20;66.50;;;37.80;;
55268;SDS011;41131;42.990;21.954;2024-01-10T06:46:46;64.72;;;36.90;;
55268;SDS011;41131;42.990;21.954;2024-01-10T06:49:12;93.10;;;51.78;;
55268;SDS011;41131;42.990;21.954;2024-01-10T06:51:37;78.13;;;45.08;;
55268;SDS011;41131;42.990;21.954;2024-01-10T06:54:03;69.78;;;40.15;;
55268;SDS011;41131;42.990;21.954;2024-01-10T06:56:30;49.78;;;30.73;;
55268;SDS011;41131;42.990;21.954;2024-01-10T06:58:58;44.47;;;29.35;;
55268;SDS011;41131;42.990;21.954;2024-01-10T07:01:25;63.05;;;41.75;;
55268;SDS011;41131;42.990;21.954;2024-01-10T07:03:52;56.40;;;34.35;;
55268;SDS011;41131;42.990;21.954;2024-01-10T07:06:20;70.47;;;50.15;;
55268;SDS011;41131;42.990;21.954;2024-01-10T07:08:47;64.40;;;49.42;;
55268;SDS011;41131;42.990;21.954;2024-01-10T07:11:14;47.85;;;36.85;;
55268;SDS011;41131;42.990;21.954;2024-01-10T07:13:40;64.88;;;44.17;;
55268;SDS011;41131;42.990;21.954;2024-01-10T07:16:07;72.78;;;45.38;;
55268;SDS011;41131;42.990;21.954;2024-01-10T07:18:33;68.80;;;44.40;;
55268;SDS011;41131;42.990;21.954;2024-01-10T07:20:59;115.53;;;92.57;;
55268;SDS011;41131;42.990;21.954;2024-01-10T07:23:25;266.50;;;216.07;;
55268;SDS011;41131;42.990;21.954;2024-01-10T07:25:51;426.73;;;325.65;;
55268;SDS011;41131;42.990;21.954;2024-01-10T07:28:17;180.85;;;131.38;;
55268;SDS011;41131;42.990;21.954;2024-01-10T07:30:44;297.90;;;204.80;;
55268;SDS011;41131;42.990;21.954;2024-01-10T07:33:10;330.70;;;166.50;;
55268;SDS011;41131;42.990;21.954;2024-01-10T07:35:36;114.55;;;56.00;;
55268;SDS011;41131;42.990;21.954;2024-01-10T07:38:03;37.55;;;22.48;;
55268;SDS011;41131;42.990;21.954;2024-01-10T07:40:33;194.75;;;84.82;;
55268;SDS011;41131;42.990;21.954;2024-01-10T07:42:59;254.98;;;83.93;;
55268;SDS011;41131;42.990;21.954;2024-01-10T07:45:25;102.43;;;41.38;;
55268;SDS011;41131;42.990;21.954;2024-01-10T07:47:51;48.38;;;30.48;;
55268;SDS011;41131;42.990;21.954;2024-01-10T07:50:18;167.25;;;72.35;;
55268;SDS011;41131;42.990;21.954;2024-01-10T07:52:44;57.80;;;30.75;;
55268;SDS011;41131;42.990;21.954;2024-01-10T07:55:11;64.00;;;33.10;;
55268;SDS011;41131;42.990;21.954;2024-01-10T07:57:37;100.00;;;48.63;;
55268;SDS011;41131;42.990;21.954;2024-01-10T08:00:06;54.20;;;33.50;;
55268;SDS011;41131;42.990;21.954;2024-01-10T08:02:36;53.08;;;33.53;;
55268;SDS011;41131;42.990;21.954;2024-01-10T08:05:02;56.63;;;38.00;;
55268;SDS011;41131;42.990;21.954;2024-01-10T08:07:33;39.38;;;23.70;;
55268;SDS011;41131;42.990;21.954;2024-01-10T08:10:03;40.30;;;25.63;;
55268;SDS011;41131;42.990;21.954;2024-01-10T08:12:33;54.17;;;33.78;;
55268;SDS011;41131;42.990;21.954;2024-01-10T08:14:58;55.97;;;33.67;;
55268;SDS011;41131;42.990;21.954;2024-01-10T08:17:24;53.03;;;30.15;;
55268;SDS011;41131;42.990;21.954;2024-01-10T08:19:50;47.22;;;27.55;;
55268;SDS011;41131;42.990;21.954;2024-01-10T08:22:17;59.53;;;35.05;;
55268;SDS011;41131;42.990;21.954;2024-01-10T08:24:44;48.67;;;32.15;;
55268;SDS011;41131;42.990;21.954;2024-01-10T08:27:11;44.33;;;28.33;;
55268;SDS011;41131;42.990;21.954;2024-01-10T08:29:37;56.45;;;35.08;;
55268;SDS011;41131;42.990;21.954;2024-01-10T08:32:03;69.72;;;43.78;;
55268;SDS011;41131;42.990;21.954;2024-01-10T08:34:29;86.40;;;53.10;;
55268;SDS011;41131;42.990;21.954;2024-01-10T08:36:55;81.30;;;43.83;;
55268;SDS011;41131;42.990;21.954;2024-01-10T08:39:20;80.68;;;44.55;;
55268;SDS011;41131;42.990;21.954;2024-01-10T08:41:51;74.32;;;39.53;;
55268;SDS011;41131;42.990;21.954;2024-01-10T08:44:18;81.00;;;45.30;;
55268;SDS011;41131;42.990;21.954;2024-01-10T08:46:43;56.83;;;36.90;;
55268;SDS011;41131;42.990;21.954;2024-01-10T08:49:09;47.55;;;31.33;;
55268;SDS011;41131;42.990;21.954;2024-01-10T08:51:35;55.05;;;33.85;;
55268;SDS011;41131;42.990;21.954;2024-01-10T08:54:01;53.47;;;37.28;;
55268;SDS011;41131;42.990;21.954;2024-01-10T08:56:27;65.05;;;40.55;;
55268;SDS011;41131;42.990;21.954;2024-01-10T08:58:52;42.35;;;25.52;;
55268;SDS011;41131;42.990;21.954;2024-01-10T09:01:18;48.95;;;30.50;;
55268;SDS011;41131;42.990;21.954;2024-01-10T09:03:44;46.35;;;29.35;;
55268;SDS011;41131;42.990;21.954;2024-01-10T09:06:11;39.80;;;27.35;;
55268;SDS011;41131;42.990;21.954;2024-01-10T09:08:36;38.88;;;25.45;;
55268;SDS011;41131;42.990;21.954;2024-01-10T09:11:02;47.33;;;27.95;;
55268;SDS011;41131;42.990;21.954;2024-01-10T09:13:28;44.65;;;31.00;;
55268;SDS011;41131;42.990;21.954;2024-01-10T09:15:54;48.65;;;33.45;;
55268;SDS011;41131;42.990;21.954;2024-01-10T09:18:20;29.13;;;18.15;;
55268;SDS011;41131;42.990;21.954;2024-01-10T09:20:46;34.88;;;17.73;;
55268;SDS011;41131;42.990;21.954;2024-01-10T09:23:13;28.65;;;17.10;;
55268;SDS011;41131;42.990;21.954;2024-01-10T09:25:39;23.92;;;15.70;;
55268;SDS011;41131;42.990;21.954;2024-01-10T09:28:05;25.90;;;18.25;;
55268;SDS011;41131;42.990;21.954;2024-01-10T09:30:32;27.67;;;17.90;;
55268;SDS011;41131;42.990;21.954;2024-01-10T09:32:59;24.42;;;17.10;;
55268;SDS011;41131;42.990;21.954;2024-01-10T09:35:25;29.38;;;20.98;;
55268;SDS011;41131;42.990;21.954;2024-01-10T09:37:51;60.95;;;33.65;;
55268;SDS011;41131;42.990;21.954;2024-01-10T09:40:19;54.70;;;24.10;;
55268;SDS011;41131;42.990;21.954;2024-01-10T09:42:48;38.38;;;24.23;;
55268;SDS011;41131;42.990;21.954;2024-01-10T09:45:19;45.60;;;30.02;;
55268;SDS011;41131;42.990;21.954;2024-01-10T09:47:49;30.17;;;19.13;;
55268;SDS011;41131;42.990;21.954;2024-01-10T09:50:18;33.53;;;20.48;;
55268;SDS011;41131;42.990;21.954;2024-01-10T09:52:51;35.22;;;22.33;;
55268;SDS011;41131;42.990;21.954;2024-01-10T09:55:20;43.95;;;24.67;;
55268;SDS011;41131;42.990;21.954;2024-01-10T09:57:47;38.55;;;23.40;;
55268;SDS011;41131;42.990;21.954;2024-01-10T10:00:14;59.42;;;35.97;;
55268;SDS011;41131;42.990;21.954;2024-01-10T10:02:41;36.30;;;22.33;;
55268;SDS011;41131;42.990;21.954;2024-01-10T10:05:14;58.10;;;28.30;;
55268;SDS011;41131;42.990;21.954;2024-01-10T10:07:44;39.70;;;20.90;;
55268;SDS011;41131;42.990;21.954;2024-01-10T10:10:14;54.88;;;28.85;;
55268;SDS011;41131;42.990;21.954;2024-01-10T10:12:42;44.30;;;27.92;;
55268;SDS011;41131;42.990;21.954;2024-01-10T10:15:12;41.50;;;22.05;;
55268;SDS011;41131;42.990;21.954;2024-01-10T10:17:39;67.22;;;32.50;;
55268;SDS011;41131;42.990;21.954;2024-01-10T10:20:12;23.50;;;14.60;;
55268;SDS011;41131;42.990;21.954;2024-01-10T10:23:01;35.65;;;22.05;;
55268;SDS011;41131;42.990;21.954;2024-01-10T10:27:59;24.88;;;18.50;;
55268;SDS011;41131;42.990;21.954;2024-01-10T10:30:26;25.38;;;18.58;;
55268;SDS011;41131;42.990;21.954;2024-01-10T10:32:56;24.77;;;17.83;;
55268;SDS011;41131;42.990;21.954;2024-01-10T10:35:22;33.13;;;22.23;;
55268;SDS011;41131;42.990;21.954;2024-01-10T10:37:48;47.03;;;26.50;;
55268;SDS011;41131;42.990;21.954;2024-01-10T10:40:15;42.03;;;24.73;;
55268;SDS011;41131;42.990;21.954;2024-01-10T10:42:45;34.10;;;23.92;;
55268;SDS011;41131;42.990;21.954;2024-01-10T10:45:17;27.73;;;19.88;;
55268;SDS011;41131;42.990;21.954;2024-01-10T10:47:45;31.85;;;21.00;;
55268;SDS011;41131;42.990;21.954;2024-01-10T10:50:18;37.15;;;24.27;;
55268;SDS011;41131;42.990;21.954;2024-01-10T10:52:46;31.95;;;22.13;;
55268;SDS011;41131;42.990;21.954;2024-01-10T10:55:13;48.00;;;27.38;;
55268;SDS011;41131;42.990;21.954;2024-01-10T10:57:47;50.92;;;34.08;;
55268;SDS011;41131;42.990;21.954;2024-01-10T11:00:14;53.08;;;33.63;;
55268;SDS011;41131;42.990;21.954;2024-01-10T11:02:42;57.25;;;36.03;;
55268;SDS011;41131;42.990;21.954;2024-01-10T11:05:09;39.22;;;25.60;;
55268;SDS011;41131;42.990;21.954;2024-01-10T11:07:41;42.25;;;26.02;;
55268;SDS011;41131;42.990;21.954;2024-01-10T11:10:21;44.20;;;24.25;;
55268;SDS011;41131;42.990;21.954;2024-01-10T11:13:02;31.75;;;20.45;;
55268;SDS011;41131;42.990;21.954;2024-01-10T11:24:15;43.50;;;26.27;;
55268;SDS011;41131;42.990;21.954;2024-01-10T11:26:41;30.33;;;20.08;;
55268;SDS011;41131;42.990;21.954;2024-01-10T11:29:07;29.65;;;20.55;;
55268;SDS011;41131;42.990;21.954;2024-01-10T11:31:35;36.58;;;23.98;;
55268;SDS011;41131;42.990;21.954;2024-01-10T11:34:04;45.90;;;27.33;;
55268;SDS011;41131;42.990;21.954;2024-01-10T11:36:30;42.65;;;28.13;;
55268;SDS011;41131;42.990;21.954;2024-01-10T11:39:03;52.78;;;33.65;;
55268;SDS011;41131;42.990;21.954;2024-01-10T11:41:31;49.55;;;31.10;;
55268;SDS011;41131;42.990;21.954;2024-01-10T11:46:43;39.10;;;23.98;;
55268;SDS011;41131;42.990;21.954;2024-01-10T11:49:09;43.58;;;23.45;;
55268;SDS011;41131;42.990;21.954;2024-01-10T11:51:37;33.75;;;14.82;;
55268;SDS011;41131;42.990;21.954;2024-01-10T11:54:03;40.20;;;21.92;;
55268;SDS011;41131;42.990;21.954;2024-01-10T11:56:42;102.38;;;47.15;;
55268;SDS011;41131;42.990;21.954;2024-01-10T11:59:10;32.55;;;20.92;;
55268;SDS011;41131;42.990;21.954;2024-01-10T12:01:37;89.80;;;48.40;;
55268;SDS011;41131;42.990;21.954;2024-01-10T12:04:03;23.75;;;13.10;;
55268;SDS011;41131;42.990;21.954;2024-01-10T12:06:30;18.60;;;13.32;;
55268;SDS011;41131;42.990;21.954;2024-01-10T12:08:57;25.25;;;17.45;;
55268;SDS011;41131;42.990;21.954;2024-01-10T12:11:23;33.58;;;22.45;;
55268;SDS011;41131;42.990;21.954;2024-01-10T12:13:49;48.85;;;28.30;;
55268;SDS011;41131;42.990;21.954;2024-01-10T12:16:15;37.80;;;23.10;;
55268;SDS011;41131;42.990;21.954;2024-01-10T12:18:44;22.63;;;13.18;;
55268;SDS011;41131;42.990;21.954;2024-01-10T12:21:10;32.45;;;18.10;;
55268;SDS011;41131;42.990;21.954;2024-01-10T12:23:37;32.92;;;17.67;;
55268;SDS011;41131;42.990;21.954;2024-01-10T12:26:08;38.55;;;18.38;;
55268;SDS011;41131;42.990;21.954;2024-01-10T12:28:37;21.15;;;14.25;;
55268;SDS011;41131;42.990;21.954;2024-01-10T12:31:04;22.20;;;13.38;;
55268;SDS011;41131;42.990;21.954;2024-01-10T12:33:33;26.50;;;19.92;;
55268;SDS011;41131;42.990;21.954;2024-01-10T12:36:17;27.17;;;16.17;;
55268;SDS011;41131;42.990;21.954;2024-01-10T12:38:45;39.65;;;25.15;;
55268;SDS011;41131;42.990;21.954;2024-01-10T12:41:11;91.60;;;43.03;;
55268;SDS011;41131;42.990;21.954;2024-01-10T12:43:37;50.67;;;26.50;;
55268;SDS011;41131;42.990;21.954;2024-01-10T12:46:06;34.75;;;23.17;;
55268;SDS011;41131;42.990;21.954;2024-01-10T12:48:33;24.90;;;18.05;;
55268;SDS011;41131;42.990;21.954;2024-01-10T12:51:03;47.10;;;25.30;;
55268;SDS011;41131;42.990;21.954;2024-01-10T12:53:39;55.72;;;27.98;;
55268;SDS011;41131;42.990;21.954;2024-01-10T12:56:07;32.75;;;20.00;;
55268;SDS011;41131;42.990;21.954;2024-01-10T12:58:34;20.30;;;13.65;;
55268;SDS011;41131;42.990;21.954;2024-01-10T13:01:04;29.48;;;16.75;;
55268;SDS011;41131;42.990;21.954;2024-01-10T13:03:30;45.53;;;22.60;;
55268;SDS011;41131;42.990;21.954;2024-01-10T13:05:56;40.55;;;23.40;;
55268;SDS011;41131;42.990;21.954;2024-01-10T13:08:22;41.80;;;26.00;;
55268;SDS011;41131;42.990;21.954;2024-01-10T13:10:48;53.53;;;37.03;;
55268;SDS011;41131;42.990;21.954;2024-01-10T13:13:14;35.67;;;23.90;;
55268;SDS011;41131;42.990;21.954;2024-01-10T13:15:40;36.60;;;22.27;;
55268;SDS011;41131;42.990;21.954;2024-01-10T13:18:07;38.45;;;24.60;;
55268;SDS011;41131;42.990;21.954;2024-01-10T13:20:35;25.05;;;16.95;;
55268;SDS011;41131;42.990;21.954;2024-01-10T13:23:01;31.73;;;21.17;;
55268;SDS011;41131;42.990;21.954;2024-01-10T13:25:27;60.40;;;28.25;;
55268;SDS011;41131;42.990;21.954;2024-01-10T13:27:53;23.67;;;15.57;;
55268;SDS011;41131;42.990;21.954;2024-01-10T13:30:19;43.38;;;24.40;;
55268;SDS011;41131;42.990;21.954;2024-01-10T13:32:45;25.35;;;15.75;;
55268;SDS011;41131;42.990;21.954;2024-01-10T13:35:13;38.72;;;24.52;;
55268;SDS011;41131;42.990;21.954;2024-01-10T13:37:39;21.10;;;15.55;;
55268;SDS011;41131;42.990;21.954;2024-01-10T13:40:06;21.23;;;14.98;;
55268;SDS011;41131;42.990;21.954;2024-01-10T13:42:35;28.10;;;18.23;;
55268;SDS011;41131;42.990;21.954;2024-01-10T13:45:03;33.15;;;18.38;;
55268;SDS011;41131;42.990;21.954;2024-01-10T13:47:30;29.67;;;16.15;;
55268;SDS011;41131;42.990;21.954;2024-01-10T13:49:58;18.65;;;13.23;;
55268;SDS011;41131;42.990;21.954;2024-01-10T13:52:23;226.75;;;67.15;;
55268;SDS011;41131;42.990;21.954;2024-01-10T13:54:49;54.78;;;26.73;;
55268;SDS011;41131;42.990;21.954;2024-01-10T13:57:15;35.03;;;21.13;;
55268;SDS011;41131;42.990;21.954;2024-01-10T13:59:41;36.47;;;23.40;;
55268;SDS011;41131;42.990;21.954;2024-01-10T14:02:07;182.43;;;81.20;;
55268;SDS011;41131;42.990;21.954;2024-01-10T14:04:33;58.63;;;29.45;;
55268;SDS011;41131;42.990;21.954;2024-01-10T14:06:58;119.28;;;86.85;;
55268;SDS011;41131;42.990;21.954;2024-01-10T14:09:24;61.25;;;35.55;;
55268;SDS011;41131;42.990;21.954;2024-01-10T14:11:50;35.20;;;20.10;;
55268;SDS011;41131;42.990;21.954;2024-01-10T14:14:16;66.60;;;30.58;;
55268;SDS011;41131;42.990;21.954;2024-01-10T14:16:43;25.35;;;13.65;;
55268;SDS011;41131;42.990;21.954;2024-01-10T14:19:09;20.42;;;13.10;;
55268;SDS011;41131;42.990;21.954;2024-01-10T14:21:34;24.52;;;13.15;;